Terminal Aerodrome Forecast
Issued by NWS

Home | Current Version | Previous Version | Text Only | Print | Product List | Glossary On
Versions: 1 2 3 4 5 6 7 8 9 10 11 12
000
FTUS43 KAPX 031120
TAFMBL
TAF
KMBL 031120Z 0312/0412 25005KT P6SM FEW250
     FM031800 26011KT P6SM SCT180
     FM032300 24008KT P6SM BKN060
     FM040200 21005KT P6SM -SHRA SCT008 OVC040
     FM040500 33009KT P6SM VCSH BKN008 OVC035
      AMD LTD TO CLD VIS AND WIND=

USA.gov is the U.S. government's official web portal to all federal, state and local government web resources and services.